createdAt,value
2022-10-05T00:02:03.659Z,11.95
2022-10-05T00:04:53.586Z,11.96
2022-10-05T00:07:39.371Z,11.94
2022-10-05T00:10:24.932Z,11.92
2022-10-05T00:13:15.921Z,11.93
2022-10-05T00:16:13.329Z,11.90
2022-10-05T00:18:59.851Z,11.88
2022-10-05T00:21:45.701Z,11.87
2022-10-05T00:24:31.600Z,11.85
2022-10-05T00:27:23.228Z,11.84
2022-10-05T00:30:18.551Z,11.81
2022-10-05T00:33:03.894Z,11.77
2022-10-05T00:35:49.704Z,11.76
2022-10-05T00:38:35.193Z,11.73
2022-10-05T00:42:14.387Z,11.73
2022-10-05T00:45:09.185Z,11.72
2022-10-05T00:48:22.174Z,11.72
2022-10-05T00:51:24.207Z,11.71
2022-10-05T00:54:34.288Z,11.69
2022-10-05T00:57:22.997Z,11.67
2022-10-05T01:00:14.144Z,11.67
2022-10-05T01:03:25.691Z,11.68
2022-10-05T01:06:46.573Z,11.71
2022-10-05T01:09:43.439Z,11.72
2022-10-05T01:12:46.593Z,11.74
2022-10-05T01:15:54.608Z,11.73
2022-10-05T01:18:51.624Z,11.73
2022-10-05T01:21:46.698Z,11.67
2022-10-05T01:24:44.699Z,11.65
2022-10-05T01:27:36.426Z,11.65
2022-10-05T01:30:23.576Z,11.63
2022-10-05T01:33:24.271Z,11.59
2022-10-05T01:36:26.627Z,11.55
2022-10-05T01:39:30.853Z,11.54
2022-10-05T01:42:37.870Z,11.51
2022-10-05T01:45:55.422Z,11.48
2022-10-05T01:48:54.863Z,11.46
2022-10-05T01:51:45.604Z,11.44
2022-10-05T01:54:37.434Z,11.41
2022-10-05T01:57:29.328Z,11.39
2022-10-05T02:00:19.803Z,11.34
2022-10-05T02:03:21.134Z,11.31
2022-10-05T02:06:30.069Z,11.28
2022-10-05T02:09:20.401Z,11.25
2022-10-05T02:12:11.796Z,11.23
2022-10-05T02:15:07.345Z,11.22
2022-10-05T02:18:05.517Z,11.21
2022-10-05T02:20:53.045Z,11.21
2022-10-05T02:23:40.983Z,11.17
2022-10-05T02:26:27.810Z,11.16
2022-10-05T02:29:17.454Z,11.15
2022-10-05T02:32:08.290Z,11.15
2022-10-05T02:35:01.555Z,11.12
2022-10-05T02:38:09.185Z,11.11
2022-10-05T02:41:10.657Z,11.09
2022-10-05T02:44:10.721Z,11.08
2022-10-05T02:47:40.922Z,11.09
2022-10-05T02:50:43.567Z,11.07
2022-10-05T02:53:48.486Z,11.06
2022-10-05T02:56:58.732Z,11.05
2022-10-05T02:59:53.542Z,11.06
2022-10-05T03:02:48.879Z,11.08
2022-10-05T03:05:48.281Z,11.09
2022-10-05T03:08:41.515Z,11.12
2022-10-05T03:11:41.009Z,11.13
2022-10-05T03:14:39.612Z,11.16
2022-10-05T03:18:05.940Z,11.17
2022-10-05T03:21:02.855Z,11.18
2022-10-05T03:24:08.054Z,11.21
2022-10-05T03:26:55.099Z,11.24
2022-10-05T03:29:50.803Z,11.24
2022-10-05T03:33:10.309Z,11.27
2022-10-05T03:36:11.645Z,11.29
2022-10-05T03:39:19.298Z,11.29
2022-10-05T03:42:27.022Z,11.31
2022-10-05T03:45:31.095Z,11.33
2022-10-05T03:48:32.663Z,11.37
2022-10-05T03:51:18.095Z,11.39
2022-10-05T03:54:16.013Z,11.41
2022-10-05T03:57:17.120Z,11.41
2022-10-05T04:00:13.787Z,11.41
2022-10-05T04:03:56.801Z,11.40
2022-10-05T04:06:48.056Z,11.40
2022-10-05T04:09:39.516Z,11.40
2022-10-05T04:12:43.843Z,11.39
2022-10-05T04:15:35.011Z,11.39
2022-10-05T04:18:31.043Z,11.37
2022-10-05T04:21:43.955Z,11.35
2022-10-05T04:24:39.641Z,11.33
2022-10-05T04:27:47.149Z,11.31
2022-10-05T04:30:38.214Z,11.31
2022-10-05T04:33:23.949Z,11.31
2022-10-05T04:36:24.635Z,11.35
2022-10-05T04:39:21.549Z,11.35
2022-10-05T04:42:40.268Z,11.35
2022-10-05T04:45:34.763Z,11.32
2022-10-05T04:48:51.835Z,11.31
2022-10-05T04:51:52.152Z,11.27
2022-10-05T04:54:57.867Z,11.23
2022-10-05T04:57:43.462Z,11.20
2022-10-05T05:00:50.336Z,11.20
2022-10-05T05:03:44.798Z,11.21
2022-10-05T05:06:53.342Z,11.24
2022-10-05T05:09:47.957Z,11.27
2022-10-05T05:12:55.126Z,11.31
2022-10-05T05:15:48.906Z,11.32
2022-10-05T05:18:58.518Z,11.33
2022-10-05T05:22:05.909Z,11.30
2022-10-05T05:25:17.778Z,11.30
2022-10-05T05:28:26.015Z,11.30
2022-10-05T05:31:36.994Z,11.30
2022-10-05T05:35:16.976Z,11.31
2022-10-05T05:38:18.043Z,11.35
2022-10-05T05:41:13.099Z,11.39
2022-10-05T05:44:24.244Z,11.43
2022-10-05T05:47:20.418Z,11.45
2022-10-05T05:50:25.207Z,11.43
2022-10-05T05:53:29.843Z,11.43
2022-10-05T05:56:24.125Z,11.46
2022-10-05T05:59:17.626Z,11.48
2022-10-05T06:02:10.852Z,11.50
2022-10-05T06:05:18.412Z,11.53
2022-10-05T06:08:39.359Z,11.58
2022-10-05T06:12:05.041Z,11.61
2022-10-05T06:15:04.842Z,11.65
2022-10-05T06:17:54.726Z,11.72
2022-10-05T06:20:49.219Z,11.73
2022-10-05T06:23:43.967Z,11.78
2022-10-05T06:27:07.924Z,11.85
2022-10-05T06:30:04.095Z,11.91
2022-10-05T06:32:51.061Z,11.96
2022-10-05T06:35:49.361Z,12.02
2022-10-05T06:39:19.743Z,12.08
2022-10-05T06:42:11.610Z,12.17
2022-10-05T06:46:13.725Z,12.25
2022-10-05T06:49:53.438Z,12.29
2022-10-05T06:53:16.131Z,12.33
2022-10-05T06:56:20.118Z,12.41
2022-10-05T06:59:30.617Z,12.47
2022-10-05T07:02:29.315Z,12.55
2022-10-05T07:05:39.425Z,12.56
2022-10-05T07:08:29.779Z,12.55
2022-10-05T07:11:33.341Z,12.57
2022-10-05T07:14:39.442Z,12.59
2022-10-05T07:17:44.237Z,12.61
2022-10-05T07:20:49.018Z,12.59
2022-10-05T07:23:36.793Z,12.60
2022-10-05T07:26:27.090Z,12.64
2022-10-05T07:29:34.875Z,12.71
2022-10-05T07:32:39.788Z,12.84
2022-10-05T07:36:11.921Z,12.95
2022-10-05T07:39:59.268Z,13.19
2022-10-05T07:43:11.679Z,13.39
2022-10-05T07:46:12.324Z,13.53
2022-10-05T07:49:18.990Z,13.60
2022-10-05T07:52:10.917Z,13.62
2022-10-05T07:55:05.458Z,13.61
2022-10-05T07:57:57.915Z,13.63
2022-10-05T08:01:13.220Z,13.71
2022-10-05T08:04:04.720Z,13.79
2022-10-05T08:06:52.262Z,13.88
2022-10-05T08:10:05.564Z,13.93
2022-10-05T08:13:13.535Z,14.05
2022-10-05T08:16:03.972Z,14.17
2022-10-05T08:19:03.125Z,14.23
2022-10-05T08:21:55.991Z,14.32
2022-10-05T08:24:49.829Z,14.36
2022-10-05T08:28:15.670Z,14.41
2022-10-05T08:31:13.320Z,14.47
2022-10-05T08:34:22.140Z,14.53
2022-10-05T08:37:18.285Z,14.52
2022-10-05T08:40:21.467Z,14.58
2022-10-05T08:43:25.613Z,14.71
2022-10-05T08:46:26.346Z,14.80
2022-10-05T08:49:34.882Z,14.88
2022-10-05T08:52:28.964Z,14.89
2022-10-05T08:55:23.711Z,14.94
2022-10-05T08:58:31.193Z,15.03
2022-10-05T09:01:16.284Z,15.06
2022-10-05T09:04:12.765Z,15.10
2022-10-05T09:07:23.267Z,15.16
2022-10-05T09:10:30.828Z,15.27
2022-10-05T09:13:37.040Z,15.35
2022-10-05T09:16:38.524Z,15.44
2022-10-05T09:19:44.204Z,15.55
2022-10-05T09:22:57.573Z,15.63
2022-10-05T09:25:56.312Z,15.68
2022-10-05T09:29:09.666Z,15.75
2022-10-05T09:32:14.294Z,15.80
2022-10-05T09:35:21.554Z,15.81
2022-10-05T09:38:25.689Z,15.84
2022-10-05T09:41:49.157Z,15.82
2022-10-05T09:44:56.437Z,15.90
2022-10-05T09:48:09.122Z,15.90
2022-10-05T09:51:06.717Z,15.88
2022-10-05T09:54:20.530Z,16.02
2022-10-05T09:58:00.873Z,16.13
2022-10-05T10:01:39.278Z,16.27
2022-10-05T10:04:49.794Z,16.29
2022-10-05T10:07:41.614Z,16.28
2022-10-05T10:11:02.413Z,16.22
2022-10-05T10:14:25.010Z,16.16
2022-10-05T10:17:34.856Z,16.07
2022-10-05T10:20:48.086Z,16.05
2022-10-05T10:24:00.324Z,16.07
2022-10-05T10:27:11.308Z,16.06
2022-10-05T10:30:03.724Z,16.05
2022-10-05T10:33:01.655Z,16.02
2022-10-05T10:36:07.069Z,16.03
2022-10-05T10:39:08.235Z,16.05
2022-10-05T10:42:26.244Z,16.10
2022-10-05T10:46:00.137Z,16.19
2022-10-05T10:49:03.552Z,16.28
2022-10-05T10:52:19.984Z,16.30
2022-10-05T10:55:30.068Z,16.64
2022-10-05T10:58:39.867Z,17.08
2022-10-05T11:01:53.502Z,17.06
2022-10-05T11:05:15.920Z,17.32
2022-10-05T11:08:34.284Z,17.42
2022-10-05T11:11:54.995Z,17.71
2022-10-05T11:14:45.212Z,17.99
2022-10-05T11:17:48.337Z,18.23
2022-10-05T11:20:45.182Z,18.47
2022-10-05T11:23:55.444Z,18.65
2022-10-05T11:27:09.228Z,18.61
2022-10-05T11:30:02.048Z,18.44
2022-10-05T11:33:11.125Z,18.45
2022-10-05T11:36:08.978Z,18.45
2022-10-05T11:39:25.600Z,18.43
2022-10-05T11:42:36.864Z,18.29
2022-10-05T11:45:43.682Z,18.07
2022-10-05T11:48:32.552Z,18.05
2022-10-05T11:51:26.463Z,18.06
2022-10-05T11:54:58.400Z,18.09
2022-10-05T11:57:51.648Z,18.11
2022-10-05T12:00:46.018Z,18.10
2022-10-05T12:03:50.424Z,18.08
2022-10-05T12:07:20.569Z,18.19
2022-10-05T12:10:20.146Z,18.37
2022-10-05T12:13:19.314Z,18.53
2022-10-05T12:16:26.953Z,18.76
2022-10-05T12:19:18.187Z,19.04
2022-10-05T12:22:25.230Z,19.18
2022-10-05T12:25:30.472Z,19.30
2022-10-05T12:28:22.946Z,19.35
2022-10-05T12:31:27.136Z,19.39
2022-10-05T12:34:40.379Z,19.35
2022-10-05T12:37:43.387Z,19.30
2022-10-05T12:40:37.999Z,19.15
2022-10-05T12:43:54.312Z,19.10
2022-10-05T12:47:02.170Z,19.09
2022-10-05T12:50:00.456Z,19.05
2022-10-05T12:53:07.709Z,19.04
2022-10-05T12:56:01.325Z,19.04
2022-10-05T12:59:11.485Z,19.06
2022-10-05T13:02:13.605Z,19.06
2022-10-05T13:05:23.122Z,19.00
2022-10-05T13:08:08.592Z,19.01
2022-10-05T13:11:03.820Z,19.03
2022-10-05T13:14:07.435Z,19.01
2022-10-05T13:16:59.713Z,19.12
2022-10-05T13:20:03.185Z,19.12
2022-10-05T13:23:22.760Z,19.14
2022-10-05T13:26:24.649Z,19.14
2022-10-05T13:29:19.678Z,19.14
2022-10-05T13:32:20.944Z,19.14
2022-10-05T13:35:25.504Z,19.12
2022-10-05T13:38:29.938Z,19.11
2022-10-05T13:41:24.599Z,19.09
2022-10-05T13:44:28.424Z,19.02
2022-10-05T13:47:17.394Z,18.97
2022-10-05T13:50:22.598Z,18.93
2022-10-05T13:53:21.907Z,18.92
2022-10-05T13:56:11.018Z,18.94
2022-10-05T13:59:14.155Z,18.92
2022-10-05T14:02:17.639Z,18.89
2022-10-05T14:05:15.930Z,18.83
2022-10-05T14:08:04.393Z,18.78
2022-10-05T14:10:49.908Z,18.71
2022-10-05T14:13:47.225Z,18.70
2022-10-05T14:16:33.752Z,18.68
2022-10-05T14:19:26.908Z,18.62
2022-10-05T14:22:15.009Z,18.60
2022-10-05T14:25:17.068Z,18.59
2022-10-05T14:28:11.951Z,18.54
2022-10-05T14:31:02.623Z,18.50
2022-10-05T14:33:47.893Z,18.42
2022-10-05T14:36:40.109Z,18.40
2022-10-05T14:39:28.050Z,18.36
2022-10-05T14:42:25.516Z,18.33
2022-10-05T14:45:17.792Z,18.31
2022-10-05T14:48:11.434Z,18.28
2022-10-05T14:51:03.971Z,18.25
2022-10-05T14:54:15.002Z,18.25
2022-10-05T14:57:25.363Z,18.25
2022-10-05T15:00:12.513Z,18.24
2022-10-05T15:03:18.838Z,18.24
2022-10-05T15:06:15.202Z,18.27
2022-10-05T15:09:25.252Z,18.26
2022-10-05T15:12:19.240Z,18.24
2022-10-05T15:15:37.256Z,18.20
2022-10-05T15:18:57.866Z,18.15
2022-10-05T15:21:56.072Z,18.13
2022-10-05T15:24:51.708Z,18.09
2022-10-05T15:28:02.000Z,18.06
2022-10-05T15:30:57.711Z,17.98
2022-10-05T15:34:03.413Z,17.92
2022-10-05T15:37:07.995Z,17.86
2022-10-05T15:40:01.033Z,17.79
2022-10-05T15:42:46.433Z,17.74
2022-10-05T15:45:41.189Z,17.71
2022-10-05T15:49:01.953Z,17.90
2022-10-05T15:52:03.541Z,18.16
2022-10-05T15:55:19.931Z,18.03
2022-10-05T15:58:31.283Z,17.90
2022-10-05T16:01:42.526Z,17.77
2022-10-05T16:04:40.859Z,17.65
2022-10-05T16:07:51.267Z,17.55
2022-10-05T16:10:42.285Z,17.47
2022-10-05T16:13:35.174Z,17.37
2022-10-05T16:17:01.332Z,17.27
2022-10-05T16:20:30.455Z,17.19
2022-10-05T16:23:33.715Z,17.10
2022-10-05T16:27:00.680Z,17.04
2022-10-05T16:30:03.283Z,16.96
2022-10-05T16:33:06.380Z,16.90
2022-10-05T16:36:24.313Z,16.86
2022-10-05T16:39:35.003Z,16.78
2022-10-05T16:42:28.141Z,16.73
2022-10-05T16:45:44.722Z,16.67
2022-10-05T16:48:36.543Z,16.62
2022-10-05T16:51:27.934Z,16.60
2022-10-05T16:54:39.046Z,16.52
2022-10-05T16:57:31.676Z,16.48
2022-10-05T17:00:54.642Z,16.44
2022-10-05T17:04:00.347Z,16.38
2022-10-05T17:06:58.114Z,16.33
2022-10-05T17:10:21.894Z,16.27
2022-10-05T17:13:16.685Z,16.22
2022-10-05T17:16:20.931Z,16.18
2022-10-05T17:19:32.953Z,16.15
2022-10-05T17:22:46.801Z,16.11
2022-10-05T17:25:54.404Z,16.07
2022-10-05T17:28:57.471Z,16.04
2022-10-05T17:32:21.806Z,16.00
2022-10-05T17:35:22.339Z,15.97
2022-10-05T17:38:22.116Z,15.94
2022-10-05T17:41:30.278Z,15.89
2022-10-05T17:44:24.468Z,15.86
2022-10-05T17:47:11.439Z,15.82
2022-10-05T17:50:17.821Z,15.82
2022-10-05T17:54:03.361Z,15.79
2022-10-05T17:56:48.910Z,15.76
2022-10-05T17:59:46.437Z,15.73
2022-10-05T18:02:36.324Z,15.70
2022-10-05T18:05:27.993Z,15.66
2022-10-05T18:08:13.652Z,15.64
2022-10-05T18:11:06.940Z,15.62
2022-10-05T18:14:16.389Z,15.58
2022-10-05T18:17:12.645Z,15.56
2022-10-05T18:20:14.436Z,15.53
2022-10-05T18:23:02.930Z,15.47
2022-10-05T18:26:20.484Z,15.45
2022-10-05T18:29:43.487Z,15.42
2022-10-05T18:32:58.113Z,15.39
2022-10-05T18:35:58.687Z,15.36
2022-10-05T18:39:18.512Z,15.32
2022-10-05T18:42:27.256Z,15.30
2022-10-05T18:45:43.568Z,15.25
2022-10-05T18:48:47.945Z,15.23
2022-10-05T18:51:50.899Z,15.17
2022-10-05T18:54:48.622Z,15.12
2022-10-05T18:57:58.951Z,15.11
2022-10-05T19:01:16.871Z,15.08
2022-10-05T19:04:33.273Z,15.03
2022-10-05T19:07:43.421Z,15.03
2022-10-05T19:10:57.534Z,14.98
2022-10-05T19:13:51.042Z,14.95
2022-10-05T19:16:46.748Z,14.93
2022-10-05T19:19:33.661Z,14.90
2022-10-05T19:22:21.969Z,14.89
2022-10-05T19:25:29.479Z,14.89
2022-10-05T19:28:29.020Z,14.86
2022-10-05T19:31:17.984Z,14.85
2022-10-05T19:34:16.737Z,14.85
2022-10-05T19:37:21.216Z,14.82
2022-10-05T19:40:26.452Z,14.80
2022-10-05T19:43:27.637Z,14.79
2022-10-05T19:46:41.723Z,14.80
2022-10-05T19:49:56.719Z,14.79
2022-10-05T19:52:49.954Z,14.77
2022-10-05T19:55:44.377Z,14.76
2022-10-05T19:58:38.603Z,14.75
2022-10-05T20:01:26.255Z,14.76
2022-10-05T20:04:11.913Z,14.77
2022-10-05T20:06:57.296Z,14.76
2022-10-05T20:09:58.003Z,14.74
2022-10-05T20:12:54.296Z,14.72
2022-10-05T20:19:55.984Z,14.68
2022-10-05T20:22:46.487Z,14.64
2022-10-05T20:25:32.498Z,14.60
2022-10-05T20:28:31.981Z,14.64
2022-10-05T20:31:26.376Z,14.64
2022-10-05T20:34:13.180Z,14.62
2022-10-05T20:36:58.471Z,14.60
2022-10-05T20:39:47.268Z,14.60
2022-10-05T20:42:32.870Z,14.58
2022-10-05T20:45:18.122Z,14.58
2022-10-05T20:48:03.832Z,14.58
2022-10-05T20:50:49.406Z,14.55
2022-10-05T20:53:34.786Z,14.53
2022-10-05T20:56:19.965Z,14.52
2022-10-05T20:59:05.317Z,14.51
2022-10-05T21:01:51.599Z,14.47
2022-10-05T21:04:41.666Z,14.47
2022-10-05T21:07:27.348Z,14.47
2022-10-05T21:10:14.197Z,14.46
2022-10-05T21:13:02.734Z,14.46
2022-10-05T21:15:48.266Z,14.46
2022-10-05T21:18:33.607Z,14.46
2022-10-05T21:21:19.010Z,14.46
2022-10-05T21:24:05.638Z,14.47
2022-10-05T21:26:51.725Z,14.49
2022-10-05T21:29:37.357Z,14.48
2022-10-05T21:32:22.732Z,14.46
2022-10-05T21:35:08.361Z,14.48
2022-10-05T21:37:53.880Z,14.49
2022-10-05T21:40:39.239Z,14.47
2022-10-05T21:43:24.642Z,14.46
2022-10-05T21:46:12.789Z,14.46
2022-10-05T21:48:58.120Z,14.48
2022-10-05T21:51:44.709Z,14.45
2022-10-05T21:54:32.731Z,14.46
2022-10-05T21:57:18.763Z,14.45
2022-10-05T22:00:07.977Z,14.46
2022-10-05T22:02:53.259Z,14.49
2022-10-05T22:05:38.460Z,14.48
2022-10-05T22:08:29.405Z,14.52
2022-10-05T22:11:17.830Z,14.52
2022-10-05T22:14:03.910Z,14.50
2022-10-05T22:16:49.682Z,14.53
2022-10-05T22:19:35.530Z,14.52
2022-10-05T22:22:23.255Z,14.51
2022-10-05T22:25:08.626Z,14.50
2022-10-05T22:27:53.756Z,14.51
2022-10-05T22:30:39.817Z,14.50
2022-10-05T22:33:25.194Z,14.49
2022-10-05T22:36:10.613Z,14.50
2022-10-05T22:38:58.759Z,14.51
2022-10-05T22:41:44.354Z,14.52
2022-10-05T22:44:30.408Z,14.53
2022-10-05T22:47:15.582Z,14.52
2022-10-05T22:50:01.723Z,14.52
2022-10-05T22:52:49.514Z,14.53
2022-10-05T22:55:34.687Z,14.54
2022-10-05T22:58:22.872Z,14.53
2022-10-05T23:01:08.858Z,14.50
2022-10-05T23:03:55.560Z,14.52
2022-10-05T23:06:40.867Z,14.52
2022-10-05T23:09:25.915Z,14.53
2022-10-05T23:12:11.571Z,14.52
2022-10-05T23:14:57.313Z,14.52
2022-10-05T23:17:42.483Z,14.52
2022-10-05T23:20:27.955Z,14.51
2022-10-05T23:23:13.126Z,14.50
2022-10-05T23:25:59.908Z,14.49
2022-10-05T23:28:48.932Z,14.47
2022-10-05T23:31:36.482Z,14.44
2022-10-05T23:34:21.789Z,14.45
2022-10-05T23:37:07.083Z,14.43
2022-10-05T23:39:52.307Z,14.44
2022-10-05T23:42:39.247Z,14.45
2022-10-05T23:45:24.298Z,14.45
2022-10-05T23:48:09.867Z,14.41
2022-10-05T23:50:55.675Z,14.41
2022-10-05T23:53:40.858Z,14.40
2022-10-05T23:56:25.986Z,14.40
2022-10-05T23:59:11.149Z,14.38
